createdAt,value
2023-03-04T00:02:25.278Z,0.71
2023-03-04T00:04:54.954Z,0.69
2023-03-04T00:07:23.402Z,0.68
2023-03-04T00:09:53.684Z,0.67
2023-03-04T00:12:23.232Z,0.66
2023-03-04T00:14:51.763Z,0.65
2023-03-04T00:17:25.595Z,0.65
2023-03-04T00:19:55.575Z,0.61
2023-03-04T00:22:24.336Z,0.59
2023-03-04T00:24:53.469Z,0.59
2023-03-04T00:27:22.254Z,0.58
2023-03-04T00:29:51.167Z,0.58
2023-03-04T00:32:19.730Z,0.56
2023-03-04T00:34:48.805Z,0.54
2023-03-04T00:37:17.171Z,0.52
2023-03-04T00:39:45.690Z,0.49
2023-03-04T00:42:17.020Z,0.46
2023-03-04T00:44:46.703Z,0.41
2023-03-04T00:47:15.405Z,0.38
2023-03-04T00:49:44.268Z,0.35
2023-03-04T00:52:13.439Z,0.33
2023-03-04T00:54:43.115Z,0.32
2023-03-04T00:57:11.768Z,0.29
2023-03-04T00:59:41.060Z,0.27
2023-03-04T01:02:12.086Z,0.24
2023-03-04T01:04:43.512Z,0.19
2023-03-04T01:07:13.433Z,0.15
2023-03-04T01:09:45.294Z,0.09
2023-03-04T01:12:14.260Z,0.02
2023-03-04T01:14:42.704Z,-0.08
2023-03-04T01:17:17.516Z,-0.16
2023-03-04T01:19:45.822Z,-0.24
2023-03-04T01:22:15.309Z,-0.29
2023-03-04T01:24:45.169Z,-0.33
2023-03-04T01:27:13.469Z,-0.37
2023-03-04T01:29:45.358Z,-0.41
2023-03-04T01:32:13.472Z,-0.45
2023-03-04T01:34:43.410Z,-0.49
2023-03-04T01:37:13.645Z,-0.53
2023-03-04T01:39:41.735Z,-0.57
2023-03-04T01:42:17.356Z,-0.61
2023-03-04T01:44:45.545Z,-0.67
2023-03-04T01:47:19.365Z,-0.71
2023-03-04T01:49:53.731Z,-0.75
2023-03-04T01:52:22.521Z,-0.79
2023-03-04T01:54:52.459Z,-0.81
2023-03-04T01:57:25.601Z,-0.83
2023-03-04T02:00:22.824Z,-0.86
2023-03-04T02:02:54.395Z,-0.90
2023-03-04T02:05:23.030Z,-0.92
2023-03-04T02:07:53.222Z,-0.96
2023-03-04T02:10:24.466Z,-0.99
2023-03-04T02:12:54.629Z,-1.02
2023-03-04T02:15:23.571Z,-1.05
2023-03-04T02:17:58.170Z,-1.08
2023-03-04T02:20:48.931Z,-1.12
2023-03-04T02:23:26.918Z,-1.16
2023-03-04T02:26:28.541Z,-1.18
2023-03-04T02:28:58.322Z,-1.20
2023-03-04T02:31:33.057Z,-1.22
2023-03-04T02:34:06.759Z,-1.26
2023-03-04T02:36:35.822Z,-1.29
2023-03-04T02:39:11.150Z,-1.32
2023-03-04T02:41:40.372Z,-1.35
2023-03-04T02:44:36.323Z,-1.40
2023-03-04T02:47:08.046Z,-1.42
2023-03-04T02:49:38.000Z,-1.43
2023-03-04T02:52:10.246Z,-1.45
2023-03-04T02:54:38.800Z,-1.48
2023-03-04T02:57:09.306Z,-1.49
2023-03-04T02:59:39.216Z,-1.51
2023-03-04T03:02:09.711Z,-1.53
2023-03-04T03:04:41.660Z,-1.54
2023-03-04T03:07:13.643Z,-1.54
2023-03-04T03:09:43.175Z,-1.53
2023-03-04T03:12:11.696Z,-1.55
2023-03-04T03:14:40.841Z,-1.57
2023-03-04T03:17:10.679Z,-1.59
2023-03-04T03:19:40.452Z,-1.62
2023-03-04T03:22:11.619Z,-1.63
2023-03-04T03:24:40.984Z,-1.61
2023-03-04T03:27:09.537Z,-1.62
2023-03-04T03:29:41.267Z,-1.63
2023-03-04T03:32:09.684Z,-1.64
2023-03-04T03:34:39.721Z,-1.65
2023-03-04T03:37:10.374Z,-1.67
2023-03-04T03:39:43.540Z,-1.67
2023-03-04T03:42:12.091Z,-1.69
2023-03-04T03:44:40.708Z,-1.70
2023-03-04T03:47:10.033Z,-1.70
2023-03-04T03:49:38.432Z,-1.71
2023-03-04T03:52:08.690Z,-1.72
2023-03-04T03:54:37.975Z,-1.72
2023-03-04T03:57:07.069Z,-1.74
2023-03-04T03:59:37.162Z,-1.74
2023-03-04T04:02:06.146Z,-1.74
2023-03-04T04:04:35.169Z,-1.75
2023-03-04T04:07:04.098Z,-1.78
2023-03-04T04:09:34.487Z,-1.80
2023-03-04T04:12:05.915Z,-1.83
2023-03-04T04:14:41.957Z,-1.86
2023-03-04T04:17:11.185Z,-1.87
2023-03-04T04:19:41.003Z,-1.90
2023-03-04T04:22:15.889Z,-1.91
2023-03-04T04:24:44.609Z,-1.92
2023-03-04T04:27:13.306Z,-1.92
2023-03-04T04:29:42.396Z,-1.93
2023-03-04T04:32:13.926Z,-1.91
2023-03-04T04:34:44.759Z,-1.90
2023-03-04T04:37:13.105Z,-1.89
2023-03-04T04:39:41.461Z,-1.86
2023-03-04T04:42:11.247Z,-1.85
2023-03-04T04:44:40.135Z,-1.84
2023-03-04T04:47:09.639Z,-1.82
2023-03-04T04:49:38.180Z,-1.79
2023-03-04T04:52:06.691Z,-1.75
2023-03-04T04:54:35.218Z,-1.72
2023-03-04T04:57:03.899Z,-1.68
2023-03-04T04:59:32.725Z,-1.62
2023-03-04T05:02:05.715Z,-1.58
2023-03-04T05:04:35.659Z,-1.54
2023-03-04T05:07:04.406Z,-1.50
2023-03-04T05:09:35.087Z,-1.47
2023-03-04T05:12:03.268Z,-1.43
2023-03-04T05:14:35.664Z,-1.39
2023-03-04T05:17:04.570Z,-1.33
2023-03-04T05:19:33.041Z,-1.28
2023-03-04T05:22:05.652Z,-1.21
2023-03-04T05:24:35.166Z,-1.16
2023-03-04T05:27:03.831Z,-1.10
2023-03-04T05:29:32.703Z,-1.04
2023-03-04T05:32:01.649Z,-0.98
2023-03-04T05:34:31.394Z,-0.90
2023-03-04T05:37:00.263Z,-0.84
2023-03-04T05:39:29.709Z,-0.76
2023-03-04T05:41:57.775Z,-0.68
2023-03-04T05:44:29.315Z,-0.59
2023-03-04T05:46:57.972Z,-0.52
2023-03-04T05:49:26.604Z,-0.44
2023-03-04T05:51:55.246Z,-0.35
2023-03-04T05:54:23.695Z,-0.24
2023-03-04T05:56:52.620Z,-0.13
2023-03-04T05:59:21.373Z,-0.04
2023-03-04T06:01:51.107Z,0.03
2023-03-04T06:04:19.950Z,0.10
2023-03-04T06:06:54.491Z,0.18
2023-03-04T06:09:24.581Z,0.28
2023-03-04T06:11:53.228Z,0.35
2023-03-04T06:14:26.252Z,0.45
2023-03-04T06:16:55.245Z,0.52
2023-03-04T06:19:23.895Z,0.59
2023-03-04T06:21:52.416Z,0.66
2023-03-04T06:24:21.637Z,0.72
2023-03-04T06:26:50.258Z,0.79
2023-03-04T06:29:20.476Z,0.87
2023-03-04T06:31:49.278Z,0.95
2023-03-04T06:34:19.725Z,1.06
2023-03-04T06:36:48.767Z,1.12
2023-03-04T06:39:19.227Z,1.20
2023-03-04T06:41:47.821Z,1.30
2023-03-04T06:44:16.375Z,1.39
2023-03-04T06:46:46.778Z,1.45
2023-03-04T06:49:15.551Z,1.50
2023-03-04T06:51:43.998Z,1.59
2023-03-04T06:54:12.816Z,1.69
2023-03-04T06:56:41.521Z,1.79
2023-03-04T06:59:10.274Z,1.87
2023-03-04T07:01:38.846Z,1.95
2023-03-04T07:04:08.244Z,2.03
2023-03-04T07:06:37.195Z,2.09
2023-03-04T07:09:07.048Z,2.09
2023-03-04T07:11:35.833Z,2.10
2023-03-04T07:14:04.416Z,2.15
2023-03-04T07:16:33.424Z,2.22
2023-03-04T07:19:02.226Z,2.30
2023-03-04T07:21:34.460Z,2.35
2023-03-04T07:24:03.100Z,2.35
2023-03-04T07:26:32.366Z,2.35
2023-03-04T07:29:01.514Z,2.41
2023-03-04T07:31:32.111Z,2.47
2023-03-04T07:34:05.282Z,2.50
2023-03-04T07:36:35.534Z,2.53
2023-03-04T07:39:07.428Z,2.56
2023-03-04T07:41:37.888Z,2.57
2023-03-04T07:44:06.864Z,2.63
2023-03-04T07:46:39.672Z,2.73
2023-03-04T07:49:08.114Z,2.82
2023-03-04T07:51:37.286Z,2.90
2023-03-04T07:54:06.122Z,2.99
2023-03-04T07:56:34.879Z,3.07
2023-03-04T07:59:03.539Z,3.09
2023-03-04T08:01:36.468Z,3.10
2023-03-04T08:04:05.743Z,3.20
2023-03-04T08:06:34.245Z,3.33
2023-03-04T08:09:09.278Z,3.39
2023-03-04T08:11:38.250Z,3.45
2023-03-04T08:14:07.505Z,3.52
2023-03-04T08:16:41.288Z,3.62
2023-03-04T08:19:11.605Z,3.78
2023-03-04T08:21:41.187Z,3.95
2023-03-04T08:24:10.549Z,4.06
2023-03-04T08:26:44.280Z,4.11
2023-03-04T08:29:14.990Z,4.18
2023-03-04T08:31:48.727Z,4.26
2023-03-04T08:34:18.943Z,4.29
2023-03-04T08:36:52.462Z,4.30
2023-03-04T08:39:21.120Z,4.33
2023-03-04T08:41:49.933Z,4.34
2023-03-04T08:44:19.330Z,4.38
2023-03-04T08:46:48.080Z,4.48
2023-03-04T08:49:19.013Z,4.55
2023-03-04T08:51:47.578Z,4.60
2023-03-04T08:54:16.070Z,4.65
2023-03-04T08:56:45.276Z,4.69
2023-03-04T08:59:14.162Z,4.76
2023-03-04T09:01:42.685Z,4.84
2023-03-04T09:04:13.765Z,4.84
2023-03-04T09:06:42.165Z,4.85
2023-03-04T09:09:11.633Z,4.88
2023-03-04T09:11:40.833Z,4.96
2023-03-04T09:14:09.797Z,4.96
2023-03-04T09:16:39.532Z,4.89
2023-03-04T09:19:07.974Z,4.81
2023-03-04T09:21:40.141Z,4.76
2023-03-04T09:24:08.900Z,4.78
2023-03-04T09:26:37.744Z,4.80
2023-03-04T09:29:07.589Z,4.86
2023-03-04T09:31:36.497Z,4.93
2023-03-04T09:34:08.224Z,5.09
2023-03-04T09:36:36.621Z,5.21
2023-03-04T09:39:07.614Z,5.30
2023-03-04T09:41:38.542Z,5.36
2023-03-04T09:44:20.531Z,5.46
2023-03-04T09:46:50.146Z,5.52
2023-03-04T09:49:20.047Z,5.58
2023-03-04T09:51:51.313Z,5.69
2023-03-04T09:54:46.562Z,5.78
2023-03-04T09:57:48.444Z,5.87
2023-03-04T10:00:26.891Z,5.90
2023-03-04T10:03:10.157Z,5.94
2023-03-04T10:05:45.028Z,5.98
2023-03-04T10:08:29.428Z,6.04
2023-03-04T10:10:59.388Z,6.12
2023-03-04T10:13:52.879Z,6.33
2023-03-04T10:16:25.114Z,6.55
2023-03-04T10:19:00.015Z,6.52
2023-03-04T10:21:32.334Z,6.38
2023-03-04T10:24:06.602Z,6.35
2023-03-04T10:26:35.224Z,6.41
2023-03-04T10:29:07.238Z,6.46
2023-03-04T10:31:38.989Z,6.50
2023-03-04T10:34:09.530Z,6.56
2023-03-04T10:36:55.698Z,6.56
2023-03-04T10:39:30.654Z,6.62
2023-03-04T10:42:01.991Z,6.66
2023-03-04T10:44:31.716Z,6.66
2023-03-04T10:47:00.792Z,6.69
2023-03-04T10:49:30.037Z,6.69
2023-03-04T10:52:03.466Z,6.68
2023-03-04T10:54:49.265Z,6.72
2023-03-04T10:57:24.001Z,6.79
2023-03-04T10:59:57.181Z,6.76
2023-03-04T11:02:32.220Z,6.71
2023-03-04T11:05:21.989Z,6.68
2023-03-04T11:07:59.831Z,6.72
2023-03-04T11:10:39.010Z,6.81
2023-03-04T11:13:11.893Z,6.92
2023-03-04T11:15:59.576Z,6.92
2023-03-04T11:18:42.866Z,6.89
2023-03-04T11:21:18.480Z,6.93
2023-03-04T11:23:57.990Z,6.90
2023-03-04T11:26:29.668Z,6.86
2023-03-04T11:29:21.702Z,6.82
2023-03-04T11:32:32.888Z,6.86
2023-03-04T11:35:09.417Z,6.95
2023-03-04T11:37:53.281Z,7.01
2023-03-04T11:40:48.721Z,7.08
2023-03-04T11:43:22.428Z,7.11
2023-03-04T11:46:29.696Z,7.17
2023-03-04T11:49:26.466Z,7.17
2023-03-04T11:51:58.790Z,7.13
2023-03-04T11:54:38.613Z,7.11
2023-03-04T11:57:17.917Z,7.13
2023-03-04T11:59:55.714Z,7.14
2023-03-04T12:02:30.518Z,7.19
2023-03-04T12:05:20.908Z,7.25
2023-03-04T12:07:56.337Z,7.29
2023-03-04T12:10:31.206Z,7.29
2023-03-04T12:13:28.575Z,7.31
2023-03-04T12:16:35.584Z,7.43
2023-03-04T12:19:16.480Z,7.55
2023-03-04T12:21:54.596Z,7.52
2023-03-04T12:25:12.391Z,7.50
2023-03-04T12:28:00.362Z,7.59
2023-03-04T12:31:07.166Z,7.65
2023-03-04T12:33:42.888Z,7.64
2023-03-04T12:36:49.405Z,7.64
2023-03-04T12:39:31.163Z,7.64
2023-03-04T12:42:38.297Z,7.74
2023-03-04T12:45:27.949Z,7.85
2023-03-04T12:48:06.362Z,7.94
2023-03-04T12:50:48.907Z,7.91
2023-03-04T12:53:24.944Z,7.86
2023-03-04T12:55:54.009Z,7.82
2023-03-04T12:58:25.757Z,7.83
2023-03-04T13:00:56.357Z,7.86
2023-03-04T13:03:31.907Z,7.89
2023-03-04T13:06:19.829Z,7.90
2023-03-04T13:09:15.756Z,7.94
2023-03-04T13:11:54.937Z,7.94
2023-03-04T13:14:26.218Z,7.94
2023-03-04T13:17:02.646Z,7.86
2023-03-04T13:19:52.805Z,7.78
2023-03-04T13:22:38.825Z,7.75
2023-03-04T13:25:26.662Z,7.76
2023-03-04T13:28:15.820Z,7.78
2023-03-04T13:30:56.053Z,7.85
2023-03-04T13:33:24.582Z,7.89
2023-03-04T13:36:05.465Z,7.95
2023-03-04T13:38:39.421Z,8.04
2023-03-04T13:41:32.180Z,8.08
2023-03-04T13:44:02.104Z,8.11
2023-03-04T13:46:43.088Z,8.13
2023-03-04T13:49:24.159Z,8.11
2023-03-04T13:51:53.827Z,8.13
2023-03-04T13:54:27.890Z,8.21
2023-03-04T13:57:03.106Z,8.25
2023-03-04T13:59:43.727Z,8.24
2023-03-04T14:02:12.775Z,8.22
2023-03-04T14:04:56.843Z,8.24
2023-03-04T14:07:34.039Z,8.33
2023-03-04T14:10:14.051Z,8.41
2023-03-04T14:12:53.821Z,8.48
2023-03-04T14:15:27.642Z,8.49
2023-03-04T14:18:02.674Z,8.42
2023-03-04T14:20:34.316Z,8.24
2023-03-04T14:23:23.000Z,7.97
2023-03-04T14:25:52.453Z,7.77
2023-03-04T14:28:21.751Z,7.79
2023-03-04T14:30:52.591Z,7.83
2023-03-04T14:33:23.746Z,7.76
2023-03-04T14:35:58.504Z,7.62
2023-03-04T14:38:30.130Z,7.58
2023-03-04T14:41:11.341Z,7.59
2023-03-04T14:43:42.377Z,7.57
2023-03-04T14:46:16.028Z,7.55
2023-03-04T14:48:49.314Z,7.60
2023-03-04T14:51:48.954Z,7.62
2023-03-04T14:54:41.446Z,7.49
2023-03-04T14:57:21.190Z,7.32
2023-03-04T14:59:51.161Z,7.13
2023-03-04T15:02:31.668Z,6.95
2023-03-04T15:05:02.101Z,6.83
2023-03-04T15:07:35.264Z,6.73
2023-03-04T15:10:07.041Z,6.56
2023-03-04T15:12:36.574Z,6.32
2023-03-04T15:15:42.344Z,6.06
2023-03-04T15:18:26.673Z,5.79
2023-03-04T15:21:03.929Z,5.56
2023-03-04T15:23:33.238Z,5.37
2023-03-04T15:26:03.743Z,5.19
2023-03-04T15:28:37.248Z,5.03
2023-03-04T15:31:06.793Z,4.85
2023-03-04T15:33:39.331Z,4.69
2023-03-04T15:36:10.916Z,4.54
2023-03-04T15:38:48.096Z,4.39
2023-03-04T15:41:27.080Z,4.26
2023-03-04T15:44:00.303Z,4.14
2023-03-04T15:46:29.621Z,4.06
2023-03-04T15:48:58.309Z,3.98
2023-03-04T15:51:28.185Z,3.89
2023-03-04T15:53:57.693Z,3.82
2023-03-04T15:56:35.198Z,3.74
2023-03-04T15:59:07.042Z,3.66
2023-03-04T16:01:35.761Z,3.60
2023-03-04T16:04:05.633Z,3.55
2023-03-04T16:06:34.458Z,3.49
2023-03-04T16:09:07.466Z,3.43
2023-03-04T16:11:39.713Z,3.39
2023-03-04T16:14:10.297Z,3.33
2023-03-04T16:16:39.152Z,3.26
2023-03-04T16:19:07.898Z,3.19
2023-03-04T16:21:41.081Z,3.10
2023-03-04T16:24:16.508Z,3.06
2023-03-04T16:26:45.407Z,3.01
2023-03-04T16:29:14.696Z,2.96
2023-03-04T16:31:43.921Z,2.91
2023-03-04T16:34:13.166Z,2.86
2023-03-04T16:36:42.050Z,2.81
2023-03-04T16:39:18.224Z,2.77
2023-03-04T16:41:48.053Z,2.73
2023-03-04T16:44:17.160Z,2.69
2023-03-04T16:46:46.077Z,2.66
2023-03-04T16:49:14.897Z,2.62
2023-03-04T16:51:48.652Z,2.61
2023-03-04T16:54:19.816Z,2.59
2023-03-04T16:56:48.473Z,2.55
2023-03-04T16:59:17.727Z,2.50
2023-03-04T17:01:46.787Z,2.44
2023-03-04T17:04:16.898Z,2.39
2023-03-04T17:06:46.313Z,2.35
2023-03-04T17:09:15.066Z,2.30
2023-03-04T17:11:44.261Z,2.27
2023-03-04T17:14:15.197Z,2.23
2023-03-04T17:16:44.998Z,2.19
2023-03-04T17:19:18.266Z,2.15
2023-03-04T17:21:47.094Z,2.11
2023-03-04T17:24:16.181Z,2.06
2023-03-04T17:26:45.095Z,2.02
2023-03-04T17:29:13.542Z,1.97
2023-03-04T17:31:42.282Z,1.92
2023-03-04T17:34:11.191Z,1.86
2023-03-04T17:36:40.423Z,1.81
2023-03-04T17:39:09.270Z,1.75
2023-03-04T17:41:38.822Z,1.71
2023-03-04T17:44:11.972Z,1.66
2023-03-04T17:46:40.723Z,1.64
2023-03-04T17:49:11.471Z,1.63
2023-03-04T17:51:40.437Z,1.62
2023-03-04T17:54:10.371Z,1.62
2023-03-04T17:56:41.073Z,1.67
2023-03-04T17:59:15.390Z,1.74
2023-03-04T18:01:47.400Z,1.80
2023-03-04T18:04:16.350Z,1.87
2023-03-04T18:06:45.736Z,1.92
2023-03-04T18:09:14.413Z,1.95
2023-03-04T18:11:43.516Z,1.96
2023-03-04T18:14:13.087Z,1.99
2023-03-04T18:16:46.936Z,2.04
2023-03-04T18:19:18.524Z,2.09
2023-03-04T18:21:53.148Z,2.12
2023-03-04T18:24:22.312Z,2.13
2023-03-04T18:26:51.212Z,2.15
2023-03-04T18:29:20.366Z,2.14
2023-03-04T18:31:49.221Z,2.13
2023-03-04T18:34:18.332Z,2.12
2023-03-04T18:36:48.288Z,2.08
2023-03-04T18:39:17.733Z,2.05
2023-03-04T18:41:46.935Z,2.00
2023-03-04T18:44:15.668Z,1.93
2023-03-04T18:46:47.694Z,1.86
2023-03-04T18:49:16.476Z,1.78
2023-03-04T18:51:45.564Z,1.70
2023-03-04T18:54:15.358Z,1.63
2023-03-04T18:56:48.158Z,1.55
2023-03-04T18:59:24.633Z,1.49
2023-03-04T19:01:53.453Z,1.43
2023-03-04T19:04:22.560Z,1.38
2023-03-04T19:06:51.656Z,1.35
2023-03-04T19:09:20.285Z,1.32
2023-03-04T19:11:48.960Z,1.32
2023-03-04T19:14:22.593Z,1.30
2023-03-04T19:16:52.367Z,1.28
2023-03-04T19:19:21.382Z,1.27
2023-03-04T19:21:50.028Z,1.26
2023-03-04T19:24:18.908Z,1.23
2023-03-04T19:26:55.084Z,1.19
2023-03-04T19:29:24.215Z,1.17
2023-03-04T19:31:53.009Z,1.14
2023-03-04T19:34:21.800Z,1.12
2023-03-04T19:36:50.573Z,1.08
2023-03-04T19:39:19.518Z,1.02
2023-03-04T19:41:48.730Z,0.97
2023-03-04T19:44:17.920Z,0.94
2023-03-04T19:46:46.035Z,0.93
2023-03-04T19:49:19.908Z,0.92
2023-03-04T19:51:48.590Z,0.89
2023-03-04T19:54:17.445Z,0.87
2023-03-04T19:56:46.423Z,0.83
2023-03-04T19:59:15.085Z,0.79
2023-03-04T20:01:43.496Z,0.77
2023-03-04T20:04:13.766Z,0.75
2023-03-04T20:06:43.872Z,0.74
2023-03-04T20:09:12.498Z,0.71
2023-03-04T20:11:56.296Z,0.70
2023-03-04T20:14:28.408Z,0.66
2023-03-04T20:17:04.145Z,0.62
2023-03-04T20:19:32.955Z,0.59
2023-03-04T20:22:01.369Z,0.56
2023-03-04T20:24:30.356Z,0.55
2023-03-04T20:27:03.030Z,0.54
2023-03-04T20:29:33.987Z,0.52
2023-03-04T20:32:04.095Z,0.51
2023-03-04T20:34:33.292Z,0.50
2023-03-04T20:37:02.402Z,0.48
2023-03-04T20:39:31.855Z,0.48
2023-03-04T20:42:00.290Z,0.48
2023-03-04T20:44:31.769Z,0.46
2023-03-04T20:47:01.848Z,0.43
2023-03-04T20:49:30.734Z,0.41
2023-03-04T20:52:06.273Z,0.39
2023-03-04T20:54:38.823Z,0.37
2023-03-04T20:57:10.849Z,0.35
2023-03-04T20:59:41.536Z,0.34
2023-03-04T21:02:14.759Z,0.32
2023-03-04T21:04:44.229Z,0.29
2023-03-04T21:07:13.218Z,0.27
2023-03-04T21:09:45.972Z,0.26
2023-03-04T21:12:14.934Z,0.25
2023-03-04T21:14:45.884Z,0.24
2023-03-04T21:17:15.330Z,0.23
2023-03-04T21:19:44.297Z,0.22
2023-03-04T21:22:15.437Z,0.21
2023-03-04T21:24:45.009Z,0.20
2023-03-04T21:27:13.857Z,0.19
2023-03-04T21:29:42.655Z,0.20
2023-03-04T21:32:24.357Z,0.22
2023-03-04T21:34:54.652Z,0.23
2023-03-04T21:37:24.183Z,0.24
2023-03-04T21:39:55.205Z,0.24
2023-03-04T21:42:24.241Z,0.26
2023-03-04T21:44:57.764Z,0.28
2023-03-04T21:47:26.050Z,0.31
2023-03-04T21:49:54.166Z,0.33
2023-03-04T21:52:22.384Z,0.33
2023-03-04T21:54:51.169Z,0.35
2023-03-04T21:57:19.594Z,0.35
2023-03-04T21:59:48.571Z,0.36
2023-03-04T22:02:19.173Z,0.37
2023-03-04T22:04:48.416Z,0.38
2023-03-04T22:07:17.249Z,0.40
2023-03-04T22:09:48.415Z,0.40
2023-03-04T22:12:19.744Z,0.40
2023-03-04T22:14:48.406Z,0.41
2023-03-04T22:17:18.034Z,0.42
2023-03-04T22:19:47.068Z,0.42
2023-03-04T22:22:20.155Z,0.43
2023-03-04T22:24:48.607Z,0.43
2023-03-04T22:27:16.991Z,0.43
2023-03-04T22:29:46.591Z,0.43
2023-03-04T22:32:17.266Z,0.43
2023-03-04T22:34:47.194Z,0.42
2023-03-04T22:37:16.174Z,0.42
2023-03-04T22:39:44.800Z,0.42
2023-03-04T22:42:14.271Z,0.42
2023-03-04T22:44:42.999Z,0.43
2023-03-04T22:47:11.679Z,0.43
2023-03-04T22:49:41.483Z,0.42
2023-03-04T22:52:15.256Z,0.41
2023-03-04T22:54:43.624Z,0.41
2023-03-04T22:57:12.265Z,0.40
2023-03-04T22:59:40.982Z,0.41
2023-03-04T23:02:10.327Z,0.42
2023-03-04T23:04:39.112Z,0.43
2023-03-04T23:07:08.120Z,0.43
2023-03-04T23:09:37.765Z,0.44
2023-03-04T23:12:06.856Z,0.44
2023-03-04T23:14:35.216Z,0.44
2023-03-04T23:17:06.205Z,0.45
2023-03-04T23:19:35.107Z,0.47
2023-03-04T23:22:04.118Z,0.48
2023-03-04T23:24:33.962Z,0.48
2023-03-04T23:27:03.546Z,0.50
2023-03-04T23:29:33.601Z,0.51
2023-03-04T23:32:01.708Z,0.50
2023-03-04T23:34:30.188Z,0.49
2023-03-04T23:36:58.925Z,0.49
2023-03-04T23:39:27.555Z,0.50
2023-03-04T23:41:56.229Z,0.51
2023-03-04T23:44:25.188Z,0.51
2023-03-04T23:46:53.892Z,0.49
2023-03-04T23:49:22.860Z,0.47
2023-03-04T23:51:51.391Z,0.44
2023-03-04T23:54:20.388Z,0.40
2023-03-04T23:56:48.820Z,0.39
2023-03-04T23:59:21.222Z,0.37
